Nesconset, New York
Current Conditions -  °F | °C
As of 5:56 AM on Friday 24 Oct 2014 (Local Time) from KISP Reporting Station
Overcast Overcast  
Wind Chill: 51°   Ceiling: 3800
Heat Index: 51°   Visibility: 10mi
Dew Point: 45°   Wind: 16mph
Humidity: 80%   Direction: 320°NW
Pressure: 29.74"   Gusts: 22mph
Location:  40.84°N, 73.14°W
Report Text: KISP 240956Z 32014G19KT 10SM FEW026 BKN038 OVC055 11/07 A2974 RMK AO2 SLP070 FIRST AUGMENTED OBSERVATION T01060072
Loading
Personal Weather Stations






























Interactive Weather Map
Tropical Storm Tracking
New forecast layout! Learn more

10-Day Weather Forecast

Advertisements
Track Severe Weather on mobile